CheckWX is a tool to help pilots better visualize weather data.  It is not intended as a substitute for an official pre-flight weather briefing.

01:13:11 UTC

KDBQ TAF
Dubuque Regional Airport
Dubuque, Iowa, USA
KDBQ 172335Z 1800/1824 VRB03KT 1SM BR OVC004 FM180500 31006KT 5SM BR OVC018 FM181600 VRB03KT 6SM BR OVC025

Nov-18@
00:00 UTC

Nov-18 @ 00:00 UTC

Nov-18@
05:00 UTC

Nov-18 @ 05:00 UTC

KDBQ 172335Z 1800/1824 VRB03KT 1SM BR OVC004
Wind
  • Variable at 3 KTS
Conditions
Mist
Cloud Levels
  • Overcast at 400' AGL

Nov-18@
05:00 UTC

Nov-18 @ 05:00 UTC

Nov-18@
16:00 UTC

Nov-18 @ 16:00 UTC

FM180500 31006KT 5SM BR OVC018

From

From Standard forecast or significant change

Wind
  • 310° at 6 KTS
Conditions
Mist
Cloud Levels
  • Overcast at 1,800' AGL

Nov-18@
16:00 UTC

Nov-18 @ 16:00 UTC

Nov-19@
00:00 UTC

Nov-19 @ 00:00 UTC

FM181600 VRB03KT 6SM BR OVC025

From

From Standard forecast or significant change

Wind
  • Variable at 3 KTS
Conditions
Mist
Cloud Levels
  • Overcast at 2,500' AGL